Time;durP1;ratioP1;P1;durP2;ratioP2;P2;SDS_P1;SDS_P2;PMS_P1;PMS_P2;Temp;Humidity;BMP_temperature;BMP_pressure;BME280_temperature;BME280_humidity;BME280_pressure;Samples;Min_cycle;Max_cycle;Signal;HPM_P1;HPM_P2
2022/09/15 00:01:40;;;;;;;7.37;3.57;;;;;;;;;;5049866;28;20479;-59
2022/09/15 00:04:06;;;;;;;4.70;2.83;;;;;;;;;;5048790;28;20040;-59
2022/09/15 00:06:32;;;;;;;5.67;2.87;;;;;;;;;;5049581;28;20077;-59
2022/09/15 00:08:59;;;;;;;5.03;3.13;;;;;;;;;;5049845;28;20057;-59
2022/09/15 00:11:26;;;;;;;4.00;2.80;;;;;;;;;;5049551;28;20047;-59
2022/09/15 00:13:53;;;;;;;6.73;3.80;;;;;;;;;;5049181;28;20049;-59
2022/09/15 00:16:20;;;;;;;6.53;2.90;;;;;;;;;;5049717;28;20407;-59
2022/09/15 00:18:46;;;;;;;5.87;3.40;;;;;;;;;;5048354;28;20422;-59
2022/09/15 00:21:17;;;;;;;7.77;3.30;;;;;;;;;;5049057;28;20053;-59
2022/09/15 00:23:43;;;;;;;7.60;3.93;;;;;;;;;;5048969;28;20520;-59
2022/09/15 00:26:11;;;;;;;7.43;4.53;;;;;;;;;;5049400;28;20410;-59
2022/09/15 00:28:37;;;;;;;8.10;3.87;;;;;;;;;;5048821;28;20126;-59
2022/09/15 00:31:05;;;;;;;8.93;3.73;;;;;;;;;;5049434;28;20414;-59
2022/09/15 00:33:31;;;;;;;9.03;4.73;;;;;;;;;;5048689;28;20561;-59
2022/09/15 00:36:00;;;;;;;6.07;4.40;;;;;;;;;;5049125;28;20045;-59
2022/09/15 00:38:26;;;;;;;8.00;4.50;;;;;;;;;;5048921;28;20418;-59
2022/09/15 00:40:54;;;;;;;10.10;5.10;;;;;;;;;;5048670;28;20048;-59
2022/09/15 00:43:22;;;;;;;7.20;5.07;;;;;;;;;;5048936;28;20091;-59
2022/09/15 00:45:49;;;;;;;9.27;5.03;;;;;;;;;;5049003;28;20671;-59
2022/09/15 00:48:18;;;;;;;8.37;5.23;;;;;;;;;;5048479;28;20076;-59
2022/09/15 00:50:47;;;;;;;9.43;6.13;;;;;;;;;;5048937;28;20402;-60
2022/09/15 00:53:14;;;;;;;9.27;5.83;;;;;;;;;;5047620;28;20103;-59
2022/09/15 00:55:44;;;;;;;8.70;6.00;;;;;;;;;;5049055;28;20049;-59
2022/09/15 00:58:19;;;;;;;10.10;7.27;;;;;;;;;;5048668;28;20049;-59
2022/09/15 01:00:50;;;;;;;13.50;6.77;;;;;;;;;;5048568;28;20132;-59
2022/09/15 01:03:16;;;;;;;9.60;6.37;;;;;;;;;;5048289;28;20041;-59
2022/09/15 01:05:46;;;;;;;11.17;6.30;;;;;;;;;;5048653;28;20041;-59
2022/09/15 01:08:22;;;;;;;14.33;5.63;;;;;;;;;;5048563;28;20465;-59
2022/09/15 01:10:50;;;;;;;8.53;6.27;;;;;;;;;;5049122;28;20102;-58
2022/09/15 01:13:16;;;;;;;9.57;5.93;;;;;;;;;;5048546;28;20128;-59
2022/09/15 01:15:51;;;;;;;11.40;5.87;;;;;;;;;;5048314;28;20041;-59
2022/09/15 01:18:23;;;;;;;10.57;6.40;;;;;;;;;;5048563;28;20045;-59
2022/09/15 01:21:12;;;;;;;10.97;6.70;;;;;;;;;;5048782;28;20048;-59
2022/09/15 01:24:01;;;;;;;12.10;6.70;;;;;;;;;;5047678;28;20045;-59
2022/09/15 01:26:43;;;;;;;9.73;5.90;;;;;;;;;;5048832;28;20457;-59
2022/09/15 01:29:27;;;;;;;15.33;7.03;;;;;;;;;;5048604;28;20056;-59
2022/09/15 01:35:10;;;;;;;11.97;7.47;;;;;;;;;;5005992;28;20057;-59
2022/09/15 01:37:39;;;;;;;17.10;6.70;;;;;;;;;;5039592;28;20045;-59
2022/09/15 01:40:06;;;;;;;12.33;6.83;;;;;;;;;;5048268;28;20056;-59
2022/09/15 01:42:32;;;;;;;12.93;7.23;;;;;;;;;;5048212;28;20045;-59
2022/09/15 01:45:03;;;;;;;13.27;6.50;;;;;;;;;;5047640;28;20514;-59
2022/09/15 01:47:29;;;;;;;12.60;7.90;;;;;;;;;;5048320;28;20041;-59
2022/09/15 01:49:58;;;;;;;17.57;8.33;;;;;;;;;;5048159;28;20051;-59
2022/09/15 01:52:26;;;;;;;18.70;7.60;;;;;;;;;;5047808;28;20037;-59
2022/09/15 01:54:55;;;;;;;16.60;8.07;;;;;;;;;;5047777;28;20044;-59
2022/09/15 01:57:21;;;;;;;21.90;8.63;;;;;;;;;;5048011;28;20041;-59
2022/09/15 01:59:48;;;;;;;17.83;8.23;;;;;;;;;;5047330;28;20131;-59
2022/09/15 02:02:17;;;;;;;13.67;7.00;;;;;;;;;;5031446;28;20099;-59
2022/09/15 02:04:50;;;;;;;12.73;7.90;;;;;;;;;;5049552;28;20048;-59
2022/09/15 02:07:34;;;;;;;13.37;7.40;;;;;;;;;;5051972;28;20053;-59
2022/09/15 02:10:18;;;;;;;14.07;8.07;;;;;;;;;;5051942;28;20499;-59
2022/09/15 02:12:46;;;;;;;14.23;7.43;;;;;;;;;;5051382;28;20044;-59
2022/09/15 02:15:15;;;;;;;12.47;8.13;;;;;;;;;;5052042;28;20075;-59
2022/09/15 02:17:44;;;;;;;18.50;7.60;;;;;;;;;;5051625;28;20045;-59
2022/09/15 02:20:14;;;;;;;12.97;6.63;;;;;;;;;;5051478;28;20486;-59
2022/09/15 02:22:42;;;;;;;11.93;6.90;;;;;;;;;;5051221;28;20059;-59
2022/09/15 02:25:11;;;;;;;16.23;7.47;;;;;;;;;;5050450;28;20068;-59
2022/09/15 02:27:46;;;;;;;10.40;6.30;;;;;;;;;;5051254;28;20060;-59
2022/09/15 02:30:13;;;;;;;14.50;6.40;;;;;;;;;;5051689;28;20710;-59
2022/09/15 02:32:42;;;;;;;15.23;6.17;;;;;;;;;;5050964;28;20064;-59
2022/09/15 02:35:09;;;;;;;13.00;6.00;;;;;;;;;;5051395;28;20059;-59
2022/09/15 02:37:35;;;;;;;14.63;7.23;;;;;;;;;;5051102;28;20049;-59
2022/09/15 02:40:02;;;;;;;10.83;6.13;;;;;;;;;;5051403;28;20090;-59
2022/09/15 02:42:30;;;;;;;8.80;5.87;;;;;;;;;;5051588;28;20048;-59
2022/09/15 02:44:56;;;;;;;13.60;5.50;;;;;;;;;;5051047;28;20175;-60
2022/09/15 02:47:23;;;;;;;9.30;5.70;;;;;;;;;;5050866;28;20041;-59
2022/09/15 02:49:49;;;;;;;12.97;5.57;;;;;;;;;;5051454;28;20037;-59
2022/09/15 02:52:15;;;;;;;11.70;4.60;;;;;;;;;;5051242;28;20119;-59
2022/09/15 02:54:41;;;;;;;14.90;5.27;;;;;;;;;;5050878;28;20053;-59
2022/09/15 02:57:08;;;;;;;8.57;4.50;;;;;;;;;;5050808;28;20049;-59
2022/09/15 03:02:19;;;;;;;7.50;3.73;;;;;;;;;;5051108;28;20128;-59
2022/09/15 03:04:45;;;;;;;8.23;3.83;;;;;;;;;;5050724;28;20051;-59
2022/09/15 03:07:11;;;;;;;9.07;3.37;;;;;;;;;;5050682;28;20056;-59
2022/09/15 03:09:38;;;;;;;14.57;3.30;;;;;;;;;;5050646;28;20048;-59
2022/09/15 03:12:04;;;;;;;8.23;2.83;;;;;;;;;;5051009;28;20052;-59
2022/09/15 03:14:31;;;;;;;9.77;2.90;;;;;;;;;;5049614;28;20045;-59
2022/09/15 03:16:59;;;;;;;12.23;4.30;;;;;;;;;;5050009;28;20455;-59
2022/09/15 03:19:25;;;;;;;9.23;3.57;;;;;;;;;;5051146;28;20053;-59
2022/09/15 03:21:51;;;;;;;10.67;2.57;;;;;;;;;;5050927;28;20048;-59
2022/09/15 03:24:21;;;;;;;11.83;3.53;;;;;;;;;;5050465;28;20054;-59
2022/09/15 03:26:48;;;;;;;6.73;2.50;;;;;;;;;;5049879;28;20052;-59
2022/09/15 03:29:14;;;;;;;9.43;2.80;;;;;;;;;;5050605;28;20619;-59
2022/09/15 03:31:40;;;;;;;6.27;2.30;;;;;;;;;;5050671;28;20048;-59
2022/09/15 03:34:06;;;;;;;11.33;2.53;;;;;;;;;;5049939;28;20107;-59
2022/09/15 03:36:32;;;;;;;10.90;2.47;;;;;;;;;;5050704;28;20045;-59
2022/09/15 03:38:59;;;;;;;10.17;2.20;;;;;;;;;;5050217;28;20049;-59
2022/09/15 03:41:26;;;;;;;7.27;2.50;;;;;;;;;;5050490;28;20422;-59
2022/09/15 03:43:52;;;;;;;9.10;2.30;;;;;;;;;;5050151;28;20045;-59
2022/09/15 03:46:19;;;;;;;9.73;2.60;;;;;;;;;;5049764;28;20045;-59
2022/09/15 03:48:46;;;;;;;6.10;1.83;;;;;;;;;;5049194;28;20494;-59
2022/09/15 03:51:12;;;;;;;4.83;2.43;;;;;;;;;;5050267;28;20487;-59
2022/09/15 03:53:39;;;;;;;8.30;1.97;;;;;;;;;;5049625;28;20044;-59
2022/09/15 03:56:08;;;;;;;6.33;2.00;;;;;;;;;;5050188;28;20041;-59
2022/09/15 03:58:34;;;;;;;9.30;1.97;;;;;;;;;;5050200;28;20053;-59
2022/09/15 04:01:00;;;;;;;7.27;2.10;;;;;;;;;;5049506;28;20499;-59
2022/09/15 04:03:26;;;;;;;7.50;1.83;;;;;;;;;;5049936;28;20045;-59
2022/09/15 04:05:52;;;;;;;7.00;1.63;;;;;;;;;;5049968;28;20159;-59
2022/09/15 04:08:18;;;;;;;6.80;1.93;;;;;;;;;;5049408;28;20529;-59
2022/09/15 04:10:44;;;;;;;4.73;1.60;;;;;;;;;;5048967;28;20059;-59
2022/09/15 04:13:10;;;;;;;9.67;2.90;;;;;;;;;;5049593;28;20465;-59
2022/09/15 04:15:36;;;;;;;5.47;1.53;;;;;;;;;;5048268;28;20049;-59
2022/09/15 04:18:03;;;;;;;5.47;1.47;;;;;;;;;;5049580;28;20513;-59
2022/09/15 04:20:30;;;;;;;6.50;2.03;;;;;;;;;;5049199;28;20072;-59
2022/09/15 04:22:57;;;;;;;6.10;1.83;;;;;;;;;;5048838;28;20509;-59
2022/09/15 04:25:24;;;;;;;7.23;1.50;;;;;;;;;;5049199;28;20084;-59
2022/09/15 04:27:50;;;;;;;8.50;1.60;;;;;;;;;;5049241;28;20102;-59
2022/09/15 04:30:16;;;;;;;5.67;1.10;;;;;;;;;;5048745;28;20059;-59
2022/09/15 04:32:42;;;;;;;4.57;1.80;;;;;;;;;;5049193;28;20045;-59
2022/09/15 04:35:08;;;;;;;5.80;1.40;;;;;;;;;;5048772;28;20049;-60
2022/09/15 04:37:34;;;;;;;6.33;1.63;;;;;;;;;;5049126;28;20119;-59
2022/09/15 04:40:00;;;;;;;9.50;1.50;;;;;;;;;;5049307;28;20056;-59
2022/09/15 04:42:27;;;;;;;6.30;1.60;;;;;;;;;;5048685;28;20048;-59
2022/09/15 04:44:53;;;;;;;9.03;1.57;;;;;;;;;;5046278;28;20074;-59
2022/09/15 04:47:19;;;;;;;7.93;1.47;;;;;;;;;;5047208;28;20048;-59
2022/09/15 04:49:46;;;;;;;7.87;2.10;;;;;;;;;;5046851;28;20391;-60
2022/09/15 04:52:12;;;;;;;11.00;1.97;;;;;;;;;;5046758;28;20466;-59
2022/09/15 04:54:38;;;;;;;8.47;1.20;;;;;;;;;;5045916;28;20053;-59
2022/09/15 04:57:04;;;;;;;7.57;1.30;;;;;;;;;;5046863;28;20052;-59
2022/09/15 04:59:30;;;;;;;7.23;1.37;;;;;;;;;;5048389;28;20132;-59
2022/09/15 05:01:56;;;;;;;4.60;1.23;;;;;;;;;;5048480;28;20053;-59
2022/09/15 05:04:22;;;;;;;6.70;1.20;;;;;;;;;;5048763;28;20057;-59
2022/09/15 05:06:48;;;;;;;4.93;1.33;;;;;;;;;;5048274;28;20048;-59
2022/09/15 05:09:14;;;;;;;9.43;1.27;;;;;;;;;;5047447;28;20045;-59
2022/09/15 05:11:40;;;;;;;10.33;1.33;;;;;;;;;;5048694;28;20075;-59
2022/09/15 05:14:08;;;;;;;10.00;2.03;;;;;;;;;;5048102;28;20805;-59
2022/09/15 05:16:34;;;;;;;8.10;1.93;;;;;;;;;;5048322;28;20466;-59
2022/09/15 05:19:02;;;;;;;4.37;1.00;;;;;;;;;;5047829;28;20510;-59
2022/09/15 05:21:28;;;;;;;6.90;1.50;;;;;;;;;;5048025;28;20120;-59
2022/09/15 05:23:54;;;;;;;6.57;1.00;;;;;;;;;;5046923;28;20056;-59
2022/09/15 05:26:21;;;;;;;7.77;1.50;;;;;;;;;;5048113;28;20047;-59
2022/09/15 05:28:47;;;;;;;11.50;1.80;;;;;;;;;;5045006;28;20052;-59
2022/09/15 05:31:19;;;;;;;6.20;1.17;;;;;;;;;;5027937;28;20042;-59
2022/09/15 05:33:46;;;;;;;6.77;1.50;;;;;;;;;;5027424;28;20041;-59
2022/09/15 05:36:16;;;;;;;7.43;1.03;;;;;;;;;;5039996;28;20417;-59
2022/09/15 05:38:42;;;;;;;4.33;1.40;;;;;;;;;;5047305;28;20044;-59
2022/09/15 05:41:10;;;;;;;9.30;1.60;;;;;;;;;;5047783;28;20056;-59
2022/09/15 05:43:37;;;;;;;5.70;1.03;;;;;;;;;;5047035;28;20499;-59
2022/09/15 05:46:03;;;;;;;5.50;1.37;;;;;;;;;;5047673;28;20040;-59
2022/09/15 05:48:30;;;;;;;6.87;1.10;;;;;;;;;;5047797;28;20048;-59
2022/09/15 05:50:56;;;;;;;10.23;2.23;;;;;;;;;;5046574;28;20084;-59
2022/09/15 05:53:22;;;;;;;7.23;1.60;;;;;;;;;;5047836;28;20041;-59
2022/09/15 05:55:49;;;;;;;6.67;1.83;;;;;;;;;;5047967;28;20059;-59
2022/09/15 05:58:15;;;;;;;13.40;1.77;;;;;;;;;;5047448;28;20049;-59
2022/09/15 06:00:41;;;;;;;8.20;1.20;;;;;;;;;;5047200;28;20041;-59
2022/09/15 06:03:12;;;;;;;4.73;1.30;;;;;;;;;;5047042;28;20583;-59
2022/09/15 06:05:38;;;;;;;3.97;0.90;;;;;;;;;;5047707;28;20045;-59
2022/09/15 06:08:04;;;;;;;9.77;1.63;;;;;;;;;;5047270;28;20399;-59
2022/09/15 06:10:31;;;;;;;5.00;1.20;;;;;;;;;;5047392;28;20048;-59
2022/09/15 06:12:57;;;;;;;6.97;1.37;;;;;;;;;;5047544;28;20037;-59
2022/09/15 06:15:24;;;;;;;11.10;1.60;;;;;;;;;;5047269;28;20406;-59
2022/09/15 06:17:50;;;;;;;8.43;1.10;;;;;;;;;;5047036;28;20457;-60
2022/09/15 06:20:17;;;;;;;9.70;1.40;;;;;;;;;;5047333;28;20048;-59
2022/09/15 06:22:43;;;;;;;6.23;1.33;;;;;;;;;;5046978;28;20052;-58
2022/09/15 06:25:10;;;;;;;8.87;1.57;;;;;;;;;;5042714;28;20094;-59
2022/09/15 06:27:36;;;;;;;5.93;1.30;;;;;;;;;;5047298;28;20048;-59
2022/09/15 06:30:03;;;;;;;5.43;1.00;;;;;;;;;;5041670;28;20120;-59
2022/09/15 06:32:29;;;;;;;7.47;1.57;;;;;;;;;;5037502;28;20142;-59
2022/09/15 06:34:55;;;;;;;5.27;1.00;;;;;;;;;;5047154;28;20418;-59
2022/09/15 06:37:21;;;;;;;7.23;1.13;;;;;;;;;;5047747;28;20049;-59
2022/09/15 06:39:47;;;;;;;6.33;1.30;;;;;;;;;;5027951;28;20077;-58
2022/09/15 06:42:13;;;;;;;3.87;1.03;;;;;;;;;;5039618;28;20148;-58
2022/09/15 06:44:39;;;;;;;5.10;1.00;;;;;;;;;;5047381;28;20041;-58
2022/09/15 06:47:06;;;;;;;7.17;1.60;;;;;;;;;;5047005;28;20060;-59
2022/09/15 06:49:32;;;;;;;7.50;1.37;;;;;;;;;;5047107;28;20056;-59
2022/09/15 06:52:00;;;;;;;6.23;1.30;;;;;;;;;;5050306;28;20116;-59
2022/09/15 06:54:26;;;;;;;7.63;1.23;;;;;;;;;;5048813;28;20041;-59
2022/09/15 06:56:53;;;;;;;7.37;1.20;;;;;;;;;;5050530;28;20045;-59
2022/09/15 06:59:18;;;;;;;5.97;1.20;;;;;;;;;;5050595;28;20132;-59
2022/09/15 07:01:45;;;;;;;8.07;1.40;;;;;;;;;;5050415;28;20049;-59
2022/09/15 07:04:11;;;;;;;9.43;1.37;;;;;;;;;;5049930;28;20560;-59
2022/09/15 07:06:38;;;;;;;7.10;1.37;;;;;;;;;;5050436;28;20051;-58
2022/09/15 07:09:04;;;;;;;7.27;1.10;;;;;;;;;;5050209;28;20071;-59
2022/09/15 07:11:31;;;;;;;7.90;1.13;;;;;;;;;;5050029;28;20057;-58
2022/09/15 07:13:57;;;;;;;12.87;1.97;;;;;;;;;;5049776;28;20040;-58
2022/09/15 07:16:24;;;;;;;8.73;1.30;;;;;;;;;;5049838;28;20041;-58
2022/09/15 07:18:50;;;;;;;5.27;1.20;;;;;;;;;;5050165;28;20049;-58
2022/09/15 07:21:21;;;;;;;8.07;1.43;;;;;;;;;;5048414;28;20041;-59
2022/09/15 07:23:47;;;;;;;7.23;1.37;;;;;;;;;;5050166;28;20041;-59
2022/09/15 07:26:15;;;;;;;6.00;1.27;;;;;;;;;;5048936;28;20469;-59
2022/09/15 07:28:42;;;;;;;7.80;1.27;;;;;;;;;;5049935;28;20045;-59
2022/09/15 07:31:10;;;;;;;8.00;1.63;;;;;;;;;;5049861;28;20048;-59
2022/09/15 07:33:36;;;;;;;10.80;1.57;;;;;;;;;;5049942;28;20049;-59
2022/09/15 07:36:06;;;;;;;5.43;1.13;;;;;;;;;;5048462;28;20049;-59
2022/09/15 07:38:32;;;;;;;7.50;1.37;;;;;;;;;;5033450;28;20092;-60
2022/09/15 07:41:05;;;;;;;6.50;1.77;;;;;;;;;;5029624;28;20045;-59
2022/09/15 07:43:31;;;;;;;5.13;1.45;;;;;;;;;;5029470;28;20104;-58
2022/09/15 07:46:00;;;;;;;7.93;2.43;;;;;;;;;;5028892;28;20049;-58
2022/09/15 07:48:26;;;;;;;10.30;2.80;;;;;;;;;;5029827;28;20037;-58
2022/09/15 07:50:52;;;;;;;14.00;3.07;;;;;;;;;;5043087;28;20064;-59
2022/09/15 07:53:18;;;;;;;13.20;2.97;;;;;;;;;;5049593;28;20037;-58
2022/09/15 07:55:44;;;;;;;16.17;4.50;;;;;;;;;;5049047;28;20045;-58
2022/09/15 07:58:10;;;;;;;18.37;4.20;;;;;;;;;;5048914;28;20512;-59
2022/09/15 08:00:37;;;;;;;8.60;3.40;;;;;;;;;;5049130;28;20063;-58
2022/09/15 08:03:04;;;;;;;13.63;4.03;;;;;;;;;;5048993;28;20056;-59
2022/09/15 08:05:31;;;;;;;13.53;3.43;;;;;;;;;;5049609;28;20041;-59
2022/09/15 08:07:57;;;;;;;12.90;4.20;;;;;;;;;;5048225;28;20052;-59
2022/09/15 08:10:24;;;;;;;18.13;4.87;;;;;;;;;;5047388;28;20502;-59
2022/09/15 08:12:50;;;;;;;14.10;4.80;;;;;;;;;;5045935;28;20044;-59
2022/09/15 08:15:17;;;;;;;15.17;4.63;;;;;;;;;;5048848;28;20045;-59
2022/09/15 08:17:43;;;;;;;10.93;3.87;;;;;;;;;;5048398;28;20073;-59
2022/09/15 08:20:10;;;;;;;10.40;3.40;;;;;;;;;;5048976;28;20132;-59
2022/09/15 08:22:36;;;;;;;10.87;3.00;;;;;;;;;;5048739;28;20552;-59
2022/09/15 08:25:02;;;;;;;14.17;3.10;;;;;;;;;;5048733;28;20425;-59
2022/09/15 08:27:28;;;;;;;9.03;2.23;;;;;;;;;;5048816;28;20128;-59
2022/09/15 08:29:54;;;;;;;7.03;2.77;;;;;;;;;;5047913;28;20080;-59
2022/09/15 08:32:20;;;;;;;11.33;2.30;;;;;;;;;;5048782;28;20080;-59
2022/09/15 08:34:46;;;;;;;7.50;1.83;;;;;;;;;;5048272;28;20449;-59
2022/09/15 08:37:12;;;;;;;4.17;1.07;;;;;;;;;;5048589;28;20106;-59
2022/09/15 08:39:38;;;;;;;6.70;1.37;;;;;;;;;;5048511;28;20107;-59
2022/09/15 08:42:05;;;;;;;9.93;1.77;;;;;;;;;;5048005;28;20041;-59
2022/09/15 08:44:31;;;;;;;10.13;2.77;;;;;;;;;;5048049;28;20063;-59
2022/09/15 08:46:57;;;;;;;11.00;3.17;;;;;;;;;;5048312;28;20049;-59
2022/09/15 08:49:32;;;;;;;11.83;3.77;;;;;;;;;;5048538;28;20140;-59
2022/09/15 08:52:03;;;;;;;13.50;3.03;;;;;;;;;;5047578;28;20076;-59
2022/09/15 08:54:29;;;;;;;7.43;3.33;;;;;;;;;;5048392;28;20587;-59
2022/09/15 08:56:56;;;;;;;7.63;2.20;;;;;;;;;;5037284;28;20048;-59
2022/09/15 08:59:26;;;;;;;9.50;2.30;;;;;;;;;;5039054;28;20128;-59
2022/09/15 09:02:07;;;;;;;7.70;1.20;;;;;;;;;;5047983;28;20127;-59
2022/09/15 09:04:39;;;;;;;4.10;1.07;;;;;;;;;;5047873;28;20059;-59
2022/09/15 09:07:16;;;;;;;6.80;1.00;;;;;;;;;;5047652;28;20114;-59
2022/09/15 09:09:52;;;;;;;6.73;1.33;;;;;;;;;;5047936;28;20103;-59
2022/09/15 09:12:26;;;;;;;4.37;1.60;;;;;;;;;;5046943;28;20136;-59
2022/09/15 09:15:15;;;;;;;6.90;1.40;;;;;;;;;;5046739;28;20049;-59
2022/09/15 09:17:56;;;;;;;5.67;1.27;;;;;;;;;;5047924;28;20364;-59
2022/09/15 09:20:22;;;;;;;6.67;1.17;;;;;;;;;;5047956;28;20041;-59
2022/09/15 09:22:50;;;;;;;2.73;0.80;;;;;;;;;;5047872;28;20137;-59
2022/09/15 09:25:18;;;;;;;4.60;0.93;;;;;;;;;;5047269;28;20088;-59
2022/09/15 09:27:44;;;;;;;4.87;1.07;;;;;;;;;;5048087;28;20687;-59
2022/09/15 09:30:18;;;;;;;4.50;1.03;;;;;;;;;;5047676;28;20060;-59
2022/09/15 09:33:03;;;;;;;6.43;1.17;;;;;;;;;;5047096;28;20529;-59
2022/09/15 09:35:50;;;;;;;3.53;0.60;;;;;;;;;;5027944;28;20053;-59
2022/09/15 09:38:21;;;;;;;4.67;1.00;;;;;;;;;;5028099;28;20113;-59
2022/09/15 09:40:47;;;;;;;5.37;0.87;;;;;;;;;;5027913;28;20045;-59
2022/09/15 09:43:14;;;;;;;7.13;0.90;;;;;;;;;;5027321;28;20037;-59
2022/09/15 09:45:40;;;;;;;5.03;0.80;;;;;;;;;;5028102;28;20053;-59
2022/09/15 09:48:14;;;;;;;5.17;0.80;;;;;;;;;;5027259;28;20099;-59
2022/09/15 09:50:44;;;;;;;3.17;0.80;;;;;;;;;;5045067;28;20041;-59
2022/09/15 09:53:24;;;;;;;3.73;1.07;;;;;;;;;;5047513;28;20122;-60
2022/09/15 09:55:52;;;;;;;7.43;0.80;;;;;;;;;;5047373;28;20099;-60
2022/09/15 09:58:19;;;;;;;9.33;0.90;;;;;;;;;;5047917;28;20591;-59
2022/09/15 10:00:46;;;;;;;4.03;1.03;;;;;;;;;;5047141;28;20076;-59
2022/09/15 10:03:16;;;;;;;3.23;0.80;;;;;;;;;;5047753;28;20041;-59
2022/09/15 10:05:43;;;;;;;4.43;1.00;;;;;;;;;;5047568;28;20049;-59
2022/09/15 10:08:16;;;;;;;4.03;0.73;;;;;;;;;;5047186;28;20057;-60
2022/09/15 10:10:58;;;;;;;4.87;0.80;;;;;;;;;;5046080;28;20044;-59
2022/09/15 10:13:24;;;;;;;4.03;0.60;;;;;;;;;;5047891;28;20045;-59
2022/09/15 10:15:54;;;;;;;5.13;0.70;;;;;;;;;;5047336;28;20056;-59
2022/09/15 10:18:34;;;;;;;6.53;0.80;;;;;;;;;;5047455;28;20045;-59
2022/09/15 10:21:04;;;;;;;2.23;0.70;;;;;;;;;;5047627;28;20046;-59
2022/09/15 10:23:31;;;;;;;4.67;0.80;;;;;;;;;;5046948;28;20049;-59
2022/09/15 10:26:17;;;;;;;2.37;0.73;;;;;;;;;;5050852;28;20048;-60
2022/09/15 10:28:44;;;;;;;4.10;0.57;;;;;;;;;;5051129;28;20468;-59
2022/09/15 10:31:26;;;;;;;4.00;0.57;;;;;;;;;;5050183;28;20048;-59
2022/09/15 10:33:52;;;;;;;3.20;0.60;;;;;;;;;;5050997;28;20114;-59
2022/09/15 10:36:19;;;;;;;4.80;0.70;;;;;;;;;;5051300;28;20503;-59
2022/09/15 10:38:45;;;;;;;2.27;0.80;;;;;;;;;;5050875;28;20132;-59
2022/09/15 10:41:20;;;;;;;2.50;0.70;;;;;;;;;;5050387;28;20123;-59
2022/09/15 10:43:47;;;;;;;2.03;0.40;;;;;;;;;;5050873;28;20045;-59
2022/09/15 10:46:26;;;;;;;3.37;0.80;;;;;;;;;;5050490;28;20475;-60
2022/09/15 10:48:59;;;;;;;5.87;0.70;;;;;;;;;;5049974;28;20064;-59
2022/09/15 10:51:31;;;;;;;2.42;0.85;;;;;;;;;;5050697;28;20051;-59
2022/09/15 10:54:00;;;;;;;4.17;0.80;;;;;;;;;;5050893;28;20688;-59
2022/09/15 10:56:32;;;;;;;3.73;0.73;;;;;;;;;;5050596;28;20056;-59
2022/09/15 10:59:20;;;;;;;2.50;0.60;;;;;;;;;;5050424;28;20052;-59
2022/09/15 11:01:49;;;;;;;2.90;0.53;;;;;;;;;;5049932;28;20514;-59
2022/09/15 11:04:18;;;;;;;3.40;0.80;;;;;;;;;;5050865;28;20060;-59
2022/09/15 11:06:52;;;;;;;3.30;0.60;;;;;;;;;;5049641;28;20037;-59
2022/09/15 11:09:24;;;;;;;2.90;0.53;;;;;;;;;;5047738;28;20127;-59
2022/09/15 11:12:02;;;;;;;2.47;0.60;;;;;;;;;;5041609;28;20056;-59
2022/09/15 11:14:31;;;;;;;4.73;1.07;;;;;;;;;;5049989;28;20041;-59
2022/09/15 11:17:12;;;;;;;2.57;0.63;;;;;;;;;;5045379;28;20042;-59
2022/09/15 11:19:41;;;;;;;5.03;0.90;;;;;;;;;;5030596;28;20087;-59
2022/09/15 11:22:11;;;;;;;2.13;0.60;;;;;;;;;;5041658;28;20826;-59
2022/09/15 11:24:40;;;;;;;2.23;0.60;;;;;;;;;;5050670;28;20099;-60
2022/09/15 11:27:18;;;;;;;2.58;0.73;;;;;;;;;;5050120;28;20071;-59
2022/09/15 11:29:47;;;;;;;2.20;0.73;;;;;;;;;;5050028;28;20041;-60
2022/09/15 11:32:18;;;;;;;3.28;0.73;;;;;;;;;;5049658;28;20045;-59
2022/09/15 11:34:53;;;;;;;3.75;0.60;;;;;;;;;;5050598;28;20041;-59
2022/09/15 11:37:23;;;;;;;4.30;1.10;;;;;;;;;;5049907;28;20088;-59
2022/09/15 11:39:58;;;;;;;5.15;0.90;;;;;;;;;;5049809;28;20488;-60
2022/09/15 11:42:35;;;;;;;9.45;2.22;;;;;;;;;;5050694;28;20398;-59
2022/09/15 11:45:02;;;;;;;4.55;1.20;;;;;;;;;;5050063;28;20502;-59
2022/09/15 11:47:32;;;;;;;4.82;0.85;;;;;;;;;;5048598;28;20041;-59
2022/09/15 11:50:05;;;;;;;3.80;0.80;;;;;;;;;;5049589;28;20051;-59
2022/09/15 11:52:31;;;;;;;6.67;1.20;;;;;;;;;;5049617;28;20060;-59
2022/09/15 11:55:15;;;;;;;5.10;0.90;;;;;;;;;;5050307;28;20037;-59
2022/09/15 11:57:44;;;;;;;3.83;0.83;;;;;;;;;;5050294;28;20049;-59
2022/09/15 12:00:13;;;;;;;5.53;1.00;;;;;;;;;;5049227;28;20052;-59
2022/09/15 12:03:05;;;;;;;4.80;0.60;;;;;;;;;;5050191;28;20055;-59
2022/09/15 12:05:52;;;;;;;3.17;1.00;;;;;;;;;;5046241;28;20502;-59
2022/09/15 12:08:24;;;;;;;2.73;0.60;;;;;;;;;;5041817;28;20102;-59
2022/09/15 12:10:51;;;;;;;3.80;0.75;;;;;;;;;;5049882;28;20078;-59
2022/09/15 12:13:19;;;;;;;6.73;0.90;;;;;;;;;;5043319;28;20510;-59
2022/09/15 12:15:49;;;;;;;4.63;0.90;;;;;;;;;;5039619;28;20418;-59
2022/09/15 12:18:28;;;;;;;5.57;0.83;;;;;;;;;;5039128;28;20053;-59
2022/09/15 12:21:03;;;;;;;3.90;1.00;;;;;;;;;;5040927;28;20445;-59
2022/09/15 12:23:39;;;;;;;4.47;0.97;;;;;;;;;;5041038;28;20131;-59
2022/09/15 12:26:09;;;;;;;5.17;0.87;;;;;;;;;;5038066;28;20042;-59
2022/09/15 12:28:40;;;;;;;2.13;0.63;;;;;;;;;;5041509;28;20491;-59
2022/09/15 12:31:25;;;;;;;2.20;0.83;;;;;;;;;;5034539;28;20048;-59
2022/09/15 12:34:20;;;;;;;4.13;0.80;;;;;;;;;;5035378;28;20050;-59
2022/09/15 12:36:47;;;;;;;2.43;0.73;;;;;;;;;;5024956;28;20054;-59
2022/09/15 12:39:31;;;;;;;5.03;0.80;;;;;;;;;;5040315;28;20037;-59
2022/09/15 12:41:57;;;;;;;3.70;0.90;;;;;;;;;;5038842;28;20045;-59
2022/09/15 12:44:31;;;;;;;3.93;0.90;;;;;;;;;;5038833;28;20043;-59
2022/09/15 12:46:58;;;;;;;4.13;0.90;;;;;;;;;;5038818;28;20047;-59
2022/09/15 12:49:29;;;;;;;6.87;1.07;;;;;;;;;;5040269;28;20037;-59
2022/09/15 12:51:56;;;;;;;6.10;1.57;;;;;;;;;;5040509;28;20044;-59
2022/09/15 12:54:23;;;;;;;3.30;0.83;;;;;;;;;;5040251;28;20037;-59
2022/09/15 12:56:54;;;;;;;4.67;0.80;;;;;;;;;;5038054;28;20410;-59
2022/09/15 12:59:24;;;;;;;8.53;0.90;;;;;;;;;;5037668;28;20080;-59
2022/09/15 13:01:51;;;;;;;2.23;0.80;;;;;;;;;;5038520;28;20285;-59
2022/09/15 13:04:23;;;;;;;3.70;0.80;;;;;;;;;;5040046;28;20178;-60
2022/09/15 13:07:08;;;;;;;4.75;0.65;;;;;;;;;;5038250;28;20041;-59
2022/09/15 13:09:43;;;;;;;3.72;0.93;;;;;;;;;;5029494;28;20411;-59
2022/09/15 13:12:10;;;;;;;1.92;0.63;;;;;;;;;;5039134;28;20045;-59
2022/09/15 13:14:38;;;;;;;3.38;0.57;;;;;;;;;;5032938;28;20040;-59
2022/09/15 13:17:12;;;;;;;4.93;1.10;;;;;;;;;;5043903;28;20112;-59
2022/09/15 13:19:40;;;;;;;2.53;0.80;;;;;;;;;;5048095;28;20525;-60
2022/09/15 13:22:09;;;;;;;5.83;0.90;;;;;;;;;;5047821;28;20095;-59
2022/09/15 13:25:01;;;;;;;4.70;0.98;;;;;;;;;;5046445;28;20052;-59
2022/09/15 13:27:35;;;;;;;3.72;0.85;;;;;;;;;;5044875;28;20062;-59
2022/09/15 13:30:21;;;;;;;2.85;0.98;;;;;;;;;;5043653;28;20045;-59
2022/09/15 13:33:06;;;;;;;11.82;1.77;;;;;;;;;;5016891;28;20045;-59
2022/09/15 13:35:32;;;;;;;8.10;1.30;;;;;;;;;;5048202;28;20048;-59
2022/09/15 13:38:17;;;;;;;5.13;1.13;;;;;;;;;;5047337;28;20049;-59
2022/09/15 13:40:43;;;;;;;5.83;1.27;;;;;;;;;;5047789;28;20052;-59
2022/09/15 13:43:28;;;;;;;5.17;1.30;;;;;;;;;;5043440;28;20037;-59
2022/09/15 13:46:12;;;;;;;3.20;1.10;;;;;;;;;;5048014;28;20049;-59
2022/09/15 13:48:44;;;;;;;4.57;0.90;;;;;;;;;;5048243;28;20402;-59
2022/09/15 13:51:15;;;;;;;5.30;0.70;;;;;;;;;;5048092;28;20124;-59
2022/09/15 13:53:50;;;;;;;2.43;0.70;;;;;;;;;;5048031;28;20053;-59
2022/09/15 13:56:23;;;;;;;3.57;1.20;;;;;;;;;;5048300;28;20130;-59
2022/09/15 13:58:49;;;;;;;4.35;0.80;;;;;;;;;;5048148;28;20076;-59
2022/09/15 14:01:19;;;;;;;5.73;0.90;;;;;;;;;;5052716;28;20045;-59
2022/09/15 14:03:47;;;;;;;3.93;0.73;;;;;;;;;;5051932;28;20052;-59
2022/09/15 14:06:32;;;;;;;3.13;0.70;;;;;;;;;;5052406;28;20053;-59
2022/09/15 14:09:00;;;;;;;3.37;0.70;;;;;;;;;;5051429;28;20593;-59
2022/09/15 14:11:29;;;;;;;2.53;0.63;;;;;;;;;;5051761;28;20135;-59
2022/09/15 14:13:55;;;;;;;6.60;1.03;;;;;;;;;;5052031;28;20095;-59
2022/09/15 14:16:22;;;;;;;6.37;1.17;;;;;;;;;;5051610;28;20451;-59
2022/09/15 14:18:49;;;;;;;5.23;0.70;;;;;;;;;;5051659;28;20087;-59
2022/09/15 14:21:17;;;;;;;4.40;0.87;;;;;;;;;;5051487;28;20056;-59
2022/09/15 14:23:50;;;;;;;5.73;0.97;;;;;;;;;;5051721;28;20712;-59
2022/09/15 14:26:16;;;;;;;;;;;;;;;;;;5052279;28;20414;-59
2022/09/15 14:28:48;;;;;;;4.53;0.80;;;;;;;;;;5051815;28;19932;-58
2022/09/15 14:31:14;;;;;;;4.20;1.05;;;;;;;;;;5051242;28;20045;-59
2022/09/15 14:33:41;;;;;;;3.03;0.80;;;;;;;;;;5051596;28;20518;-59
2022/09/15 14:36:25;;;;;;;4.00;0.80;;;;;;;;;;5048409;28;20042;-60
2022/09/15 14:39:10;;;;;;;6.77;0.90;;;;;;;;;;5051682;28;20407;-59
2022/09/15 14:41:37;;;;;;;3.57;0.60;;;;;;;;;;5051512;28;20049;-59
2022/09/15 14:44:18;;;;;;;6.97;1.17;;;;;;;;;;5051016;28;20083;-60
2022/09/15 14:46:45;;;;;;;4.10;0.70;;;;;;;;;;5051210;28;20041;-60
2022/09/15 14:49:11;;;;;;;3.00;0.60;;;;;;;;;;5051297;28;20049;-60
2022/09/15 14:51:38;;;;;;;3.27;1.00;;;;;;;;;;5051510;28;20052;-60
2022/09/15 14:54:05;;;;;;;5.00;1.07;;;;;;;;;;5051094;28;20348;-60
2022/09/15 14:56:33;;;;;;;3.60;0.60;;;;;;;;;;5051210;28;20478;-60
2022/09/15 14:59:02;;;;;;;3.47;0.73;;;;;;;;;;5051215;28;20049;-60
2022/09/15 15:01:34;;;;;;;5.90;1.13;;;;;;;;;;5050896;28;20072;-60